^^
Saratoga-Weather Station Historical Data
Daily Summary for May 31, 2021 Units:  Metric    English   Both
Daily Weekly Monthly Yearly Custom
  High: Low: Average:
Temperature: 2.3 °C 1.3 °C 1.8 °C
Dew Point: 1.9 °C 0.6 °C 1.2 °C
Humidity: 97% 95% 96%
Wind Speed: 11.3km/h 0km/h 3.2km/h
Wind Gust: 14.5km/h - -
Wind- - East
Pressure: 1001.4 hPa 991.5 hPa -
Precipitation: 8.6 mm    
Historical Graphs
 
 
Tabular Data for May 31, 2021
Time Temperature Dew Point Pressure Wind Wind Speed Wind Gust Humidity Rainfall Rate (Hourly) solar
00:01 2.3 °C 1.7 °C 998.0 hPa NE 4.7 km/h 9.7 km/h 96% 0.8 mm 0 W/m2
00:06 2.3 °C 1.7 °C 998.0 hPa SE 6.4 km/h 6.4 km/h 96% 1.0 mm 0 W/m2
00:11 2.3 °C 1.7 °C 998.0 hPa East 1.4 km/h 4.8 km/h 96% 1.0 mm 0 W/m2
00:16 2.3 °C 1.7 °C 998.0 hPa ENE 3.2 km/h 4.8 km/h 96% 1.0 mm 0 W/m2
00:21 2.3 °C 1.7 °C 998.0 hPa ENE 4.7 km/h 6.4 km/h 96% 1.0 mm 0 W/m2
00:26 2.2 °C 1.6 °C 998.0 hPa ESE 1.4 km/h 3.2 km/h 96% 0.8 mm 0 W/m2
00:31 2.2 °C 1.6 °C 998.0 hPa NE 1.4 km/h 8 km/h 96% 0.5 mm 0 W/m2
00:36 2.2 °C 1.6 °C 998.0 hPa East 3.2 km/h 4.8 km/h 96% 0.5 mm 0 W/m2
00:41 2.2 °C 1.6 °C 998.0 hPa ESE 1.4 km/h 4.8 km/h 96% 0.5 mm 0 W/m2
00:46 2.1 °C 1.5 °C 998.0 hPa ENE 3.2 km/h 6.4 km/h 96% 0.5 mm 0 W/m2
00:51 2.1 °C 1.5 °C 998.3 hPa Calm   6.4 km/h 96% 0.2 mm 0 W/m2
00:56 2 °C 1.4 °C 998.3 hPa NE 7.9 km/h 11.3 km/h 96% 0.2 mm 0 W/m2
01:01 2 °C 1.4 °C 998.0 hPa ENE 4.7 km/h 4.8 km/h 96% 0.2 mm 0 W/m2
01:06 2 °C 1.4 °C 998.0 hPa ESE 1.4 km/h 11.3 km/h 96% 0.0 mm 0 W/m2
01:11 2 °C 1.4 °C 998.0 hPa East 3.2 km/h 6.4 km/h 96% 0.0 mm 0 W/m2
01:16 1.9 °C 1.3 °C 998.3 hPa East 1.4 km/h 6.4 km/h 96% 0.0 mm 0 W/m2
01:21 1.9 °C 1.3 °C 998.3 hPa East 3.2 km/h 4.8 km/h 96% 0.0 mm 0 W/m2
01:26 1.9 °C 1.3 °C 998.3 hPa ENE 3.2 km/h 6.4 km/h 96% 0.0 mm 0 W/m2
01:31 1.9 °C 1.3 °C 998.3 hPa ESE 3.2 km/h 4.8 km/h 96% 0.0 mm 0 W/m2
01:36 1.9 °C 1.3 °C 998.3 hPa SE 1.4 km/h 4.8 km/h 96% 0.2 mm 0 W/m2
01:41 1.9 °C 1.3 °C 998.3 hPa NE 1.4 km/h 6.4 km/h 96% 0.2 mm 0 W/m2
01:46 1.9 °C 1.3 °C 998.3 hPa ESE 3.2 km/h 3.2 km/h 96% 0.2 mm 0 W/m2
01:51 1.9 °C 1.3 °C 998.3 hPa ESE 6.4 km/h 6.4 km/h 96% 0.2 mm 0 W/m2
01:56 1.9 °C 1.3 °C 998.3 hPa East 4.7 km/h 6.4 km/h 96% 0.2 mm 0 W/m2
02:01 1.9 °C 1.3 °C 998.3 hPa ESE 6.4 km/h 6.4 km/h 96% 0.2 mm 0 W/m2
02:06 1.9 °C 1.3 °C 998.3 hPa ENE 1.4 km/h 6.4 km/h 96% 0.2 mm 0 W/m2
02:11 1.9 °C 1.3 °C 998.3 hPa East 3.2 km/h 6.4 km/h 96% 0.2 mm 0 W/m2
02:16 1.9 °C 1.3 °C 998.6 hPa ESE 3.2 km/h 9.7 km/h 96% 0.2 mm 0 W/m2
02:21 1.9 °C 1.3 °C 998.6 hPa ESE 11.1 km/h 11.3 km/h 96% 0.2 mm 0 W/m2
02:26 1.9 °C 1.2 °C 998.6 hPa East 3.2 km/h 4.8 km/h 95% 0.2 mm 0 W/m2
02:31 1.8 °C 1.1 °C 998.6 hPa SE 3.2 km/h 11.3 km/h 95% 0.2 mm 0 W/m2
02:36 1.8 °C 1.1 °C 998.6 hPa ENE 3.2 km/h 6.4 km/h 95% 0.0 mm 0 W/m2
02:41 1.8 °C 1.1 °C 998.6 hPa ESE 4.7 km/h 8 km/h 95% 0.0 mm 0 W/m2
02:46 1.8 °C 1.1 °C 998.6 hPa ENE 3.2 km/h 12.9 km/h 95% 0.0 mm 0 W/m2
02:51 1.9 °C 1.2 °C 998.6 hPa Calm   3.2 km/h 95% 0.0 mm 0 W/m2
02:56 1.9 °C 1.2 °C 998.6 hPa East 6.4 km/h 12.9 km/h 95% 0.0 mm 0 W/m2
03:01 1.9 °C 1.2 °C 998.6 hPa ENE 11.1 km/h 14.5 km/h 95% 0.0 mm 0 W/m2
03:06 1.9 °C 1.2 °C 998.6 hPa Calm   6.4 km/h 95% 0.0 mm 0 W/m2
03:11 1.9 °C 1.2 °C 998.6 hPa ENE 4.7 km/h 14.5 km/h 95% 0.0 mm 0 W/m2
03:16 1.8 °C 1.1 °C 998.6 hPa ENE 4.7 km/h 9.7 km/h 95% 0.0 mm 0 W/m2
03:21 1.8 °C 1.1 °C 998.6 hPa ESE 3.2 km/h 12.9 km/h 95% 0.0 mm 0 W/m2
03:26 1.8 °C 1.1 °C 998.6 hPa East 4.7 km/h 11.3 km/h 95% 0.2 mm 0 W/m2
03:31 1.8 °C 1.1 °C 998.6 hPa East 4.7 km/h 8 km/h 95% 0.2 mm 0 W/m2
03:36 1.8 °C 1.1 °C 998.6 hPa ENE 6.4 km/h 6.4 km/h 95% 0.2 mm 0 W/m2
03:41 1.8 °C 1.1 °C 998.6 hPa ESE 1.4 km/h 4.8 km/h 95% 0.2 mm 0 W/m2
03:46 1.8 °C 1.1 °C 998.6 hPa Calm   3.2 km/h 95% 0.2 mm 0 W/m2
03:51 1.8 °C 1.1 °C 999.0 hPa ESE 3.2 km/h 11.3 km/h 95% 0.2 mm 0 W/m2
03:56 1.8 °C 1.1 °C 999.0 hPa NE 1.4 km/h 8 km/h 95% 0.2 mm 0 W/m2
04:01 1.7 °C 1 °C 999.0 hPa ESE 3.2 km/h 8 km/h 95% 0.2 mm 0 W/m2
04:06 1.7 °C 1 °C 999.0 hPa SE 3.2 km/h 6.4 km/h 95% 0.5 mm 0 W/m2
04:11 1.7 °C 1 °C 999.0 hPa East 3.2 km/h 14.5 km/h 95% 0.5 mm 0 W/m2
04:16 1.7 °C 1 °C 999.0 hPa ENE 3.2 km/h 9.7 km/h 95% 0.5 mm 0 W/m2
04:21 1.7 °C 1 °C 999.0 hPa ESE 4.7 km/h 11.3 km/h 95% 0.5 mm 0 W/m2
04:26 1.7 °C 1 °C 999.0 hPa East 3.2 km/h 6.4 km/h 95% 0.2 mm 0 W/m2
04:31 1.7 °C 1 °C 999.0 hPa East 1.4 km/h 6.4 km/h 95% 0.2 mm 0 W/m2
04:36 1.7 °C 1 °C 999.0 hPa East 4.7 km/h 11.3 km/h 95% 0.5 mm 0 W/m2
04:42 1.7 °C 1 °C 999.0 hPa NE 3.2 km/h 4.8 km/h 95% 0.5 mm 0 W/m2
04:47 1.7 °C 1 °C 999.0 hPa ENE 1.4 km/h 8 km/h 95% 0.5 mm 0 W/m2
04:52 1.7 °C 1 °C 999.0 hPa ESE 1.4 km/h 9.7 km/h 95% 0.5 mm 0 W/m2
04:57 1.7 °C 1 °C 999.0 hPa East 4.7 km/h 4.8 km/h 95% 0.5 mm 0 W/m2
05:02 1.6 °C 0.9 °C 999.0 hPa Calm   3.2 km/h 95% 0.5 mm 0 W/m2
05:07 1.6 °C 0.9 °C 999.0 hPa ESE 1.4 km/h 3.2 km/h 95% 0.5 mm 0 W/m2
05:12 1.7 °C 1 °C 999.0 hPa East 1.4 km/h 4.8 km/h 95% 0.5 mm 0 W/m2
05:17 1.6 °C 0.9 °C 999.0 hPa NE 4.7 km/h 4.8 km/h 95% 0.5 mm 0 W/m2
05:22 1.6 °C 0.9 °C 999.0 hPa East 3.2 km/h 6.4 km/h 95% 0.5 mm 0 W/m2
05:27 1.6 °C 0.9 °C 999.0 hPa Calm   3.2 km/h 95% 0.5 mm 0 W/m2
05:32 1.6 °C 0.9 °C 999.0 hPa ESE 1.4 km/h 6.4 km/h 95% 0.5 mm 0 W/m2
05:37 1.6 °C 0.9 °C 999.0 hPa East 1.4 km/h 3.2 km/h 95% 0.5 mm 0 W/m2
05:42 1.6 °C 1 °C 999.3 hPa ENE 1.4 km/h 3.2 km/h 96% 0.5 mm 0 W/m2
05:47 1.6 °C 1 °C 999.3 hPa ENE 1.4 km/h 6.4 km/h 96% 0.5 mm 0 W/m2
05:52 1.6 °C 1 °C 999.3 hPa ESE 6.4 km/h 11.3 km/h 96% 0.5 mm 0 W/m2
05:57 1.6 °C 1 °C 999.3 hPa East 3.2 km/h 8 km/h 96% 0.2 mm 0 W/m2
06:02 1.6 °C 1 °C 999.3 hPa East 4.7 km/h 6.4 km/h 96% 0.2 mm 0 W/m2
06:07 1.6 °C 1 °C 999.3 hPa East 3.2 km/h 9.7 km/h 96% 0.2 mm 0 W/m2
06:12 1.6 °C 1 °C 999.3 hPa ESE 4.7 km/h 6.4 km/h 96% 0.2 mm 0 W/m2
06:17 1.5 °C 0.9 °C 999.3 hPa East 3.2 km/h 4.8 km/h 96% 0.2 mm 0 W/m2
06:22 1.6 °C 1 °C 999.3 hPa East 1.4 km/h 4.8 km/h 96% 0.5 mm 0 W/m2
06:27 1.5 °C 0.9 °C 999.3 hPa East 1.4 km/h 6.4 km/h 96% 0.5 mm 0 W/m2
06:32 1.5 °C 0.9 °C 999.7 hPa ESE 3.2 km/h 8 km/h 96% 0.2 mm 0 W/m2
06:37 1.5 °C 0.9 °C 999.7 hPa East 3.2 km/h 4.8 km/h 96% 0.2 mm 0 W/m2
06:42 1.5 °C 0.9 °C 999.7 hPa East 3.2 km/h 8 km/h 96% 0.2 mm 0 W/m2
06:47 1.5 °C 0.9 °C 999.7 hPa ESE 6.4 km/h 6.4 km/h 96% 0.2 mm 0 W/m2
06:52 1.5 °C 0.9 °C 999.7 hPa ENE 3.2 km/h 11.3 km/h 96% 0.2 mm 0 W/m2
06:57 1.4 °C 0.7 °C 999.7 hPa Calm   6.4 km/h 95% 0.2 mm 0 W/m2
07:02 1.4 °C 0.7 °C 999.7 hPa ENE 1.4 km/h 3.2 km/h 95% 0.2 mm 0 W/m2
07:07 1.4 °C 0.7 °C 999.7 hPa ENE 4.7 km/h 9.7 km/h 95% 0.2 mm 0 W/m2
07:12 1.4 °C 0.7 °C 999.7 hPa East 3.2 km/h 8 km/h 95% 0.2 mm 0 W/m2
07:17 1.3 °C 0.6 °C 999.7 hPa East 6.4 km/h 12.9 km/h 95% 0.2 mm 0 W/m2
07:22 1.4 °C 0.7 °C 999.7 hPa East 4.7 km/h 6.4 km/h 95% 0.0 mm 0 W/m2
07:27 1.4 °C 0.7 °C 999.7 hPa NE 4.7 km/h 12.9 km/h 95% 0.0 mm 0 W/m2
07:32 1.4 °C 0.7 °C 1000.0 hPa ESE 3.2 km/h 6.4 km/h 95% 0.0 mm 0 W/m2
07:37 1.4 °C 0.7 °C 1000.0 hPa ESE 3.2 km/h 6.4 km/h 95% 0.0 mm 0 W/m2
07:42 1.4 °C 0.7 °C 1000.0 hPa NE 3.2 km/h 6.4 km/h 95% 0.0 mm 0 W/m2
07:47 1.3 °C 0.6 °C 1000.0 hPa East 4.7 km/h 9.7 km/h 95% 0.0 mm 0 W/m2
07:52 1.3 °C 0.6 °C 1000.0 hPa ENE 3.2 km/h 8 km/h 95% 0.0 mm 0 W/m2
07:57 1.3 °C 0.6 °C 1000.3 hPa ESE 9.7 km/h 11.3 km/h 95% 0.0 mm 0 W/m2
08:02 1.4 °C 0.7 °C 1000.3 hPa Calm   4.8 km/h 95% 0.0 mm 0 W/m2
08:07 1.4 °C 0.7 °C 1000.3 hPa East 3.2 km/h 4.8 km/h 95% 0.0 mm 0 W/m2
08:12 1.4 °C 0.7 °C 1000.3 hPa East 6.4 km/h 6.4 km/h 95% 0.0 mm 0 W/m2
08:17 1.4 °C 0.7 °C 1000.3 hPa East 1.4 km/h 1.6 km/h 95% 0.0 mm 0 W/m2
08:22 1.4 °C 0.7 °C 1000.3 hPa East 4.7 km/h 4.8 km/h 95% 0.0 mm 0 W/m2
08:27 1.4 °C 0.7 °C 1000.3 hPa East 4.7 km/h 9.7 km/h 95% 0.0 mm 0 W/m2
08:32 1.4 °C 0.7 °C 1000.7 hPa East 3.2 km/h 12.9 km/h 95% 0.0 mm 0 W/m2
08:37 1.4 °C 0.7 °C 1000.7 hPa ESE 4.7 km/h 6.4 km/h 95% 0.0 mm 0 W/m2
08:42 1.4 °C 0.7 °C 1000.7 hPa ENE 3.2 km/h 4.8 km/h 95% 0.0 mm 5 W/m2
08:47 1.4 °C 0.7 °C 1000.7 hPa ESE 4.7 km/h 9.7 km/h 95% 0.0 mm 7 W/m2
08:52 1.4 °C 0.7 °C 1000.7 hPa ESE 6.4 km/h 9.7 km/h 95% 0.0 mm 9 W/m2
08:57 1.4 °C 0.7 °C 1000.7 hPa East 4.7 km/h 9.7 km/h 95% 0.0 mm 14 W/m2
09:02 1.4 °C 0.7 °C 1000.7 hPa East 1.4 km/h 6.4 km/h 95% 0.0 mm 14 W/m2
09:07 1.4 °C 0.7 °C 1000.7 hPa ESE 3.2 km/h 9.7 km/h 95% 0.0 mm 14 W/m2
09:12 1.4 °C 0.7 °C 1001.0 hPa East 3.2 km/h 6.4 km/h 95% 0.2 mm 14 W/m2
09:17 1.4 °C 0.7 °C 1001.0 hPa ESE 3.2 km/h 9.7 km/h 95% 0.2 mm 16 W/m2
09:22 1.4 °C 0.7 °C 1001.0 hPa ENE 7.9 km/h 11.3 km/h 95% 0.2 mm 18 W/m2
09:27 1.3 °C 0.6 °C 1001.0 hPa East 7.9 km/h 14.5 km/h 95% 0.2 mm 19 W/m2
09:32 1.3 °C 0.6 °C 1001.0 hPa ESE 7.9 km/h 9.7 km/h 95% 0.2 mm 21 W/m2
09:37 1.3 °C 0.6 °C 1001.0 hPa ESE 1.4 km/h 6.4 km/h 95% 0.2 mm 23 W/m2
09:42 1.3 °C 0.6 °C 1001.0 hPa ENE 6.4 km/h 6.4 km/h 95% 0.2 mm 25 W/m2
09:48 1.3 °C 0.6 °C 1001.0 hPa East 3.2 km/h 4.8 km/h 95% 0.2 mm 25 W/m2
09:53 1.3 °C 0.6 °C 1001.0 hPa ESE 1.4 km/h 4.8 km/h 95% 0.2 mm 26 W/m2
09:58 1.3 °C 0.6 °C 1001.0 hPa East 1.4 km/h 6.4 km/h 95% 0.2 mm 26 W/m2
10:03 1.3 °C 0.6 °C 1001.0 hPa SE 3.2 km/h 4.8 km/h 95% 0.2 mm 25 W/m2
10:08 1.3 °C 0.6 °C 1001.0 hPa ESE 3.2 km/h 4.8 km/h 95% 0.2 mm 30 W/m2
10:13 1.3 °C 0.6 °C 1001.0 hPa East 3.2 km/h 8 km/h 95% 0.2 mm 28 W/m2
10:18 1.3 °C 0.6 °C 1001.0 hPa ENE 4.7 km/h 11.3 km/h 95% 0.2 mm 21 W/m2
10:23 1.3 °C 0.6 °C 1001.0 hPa East 3.2 km/h 6.4 km/h 95% 0.2 mm 21 W/m2
10:28 1.3 °C 0.6 °C 1001.0 hPa ENE 1.4 km/h 11.3 km/h 95% 0.2 mm 30 W/m2
10:33 1.3 °C 0.6 °C 1001.0 hPa Calm   4.8 km/h 95% 0.2 mm 26 W/m2
10:38 1.3 °C 0.6 °C 1001.0 hPa East 1.4 km/h 4.8 km/h 95% 0.2 mm 25 W/m2
10:43 1.4 °C 0.8 °C 1001.0 hPa East 3.2 km/h 8 km/h 96% 0.2 mm 39 W/m2
10:48 1.4 °C 0.8 °C 1001.0 hPa ESE 3.2 km/h 9.7 km/h 96% 0.2 mm 42 W/m2
10:53 1.3 °C 0.6 °C 1001.0 hPa East 1.4 km/h 8 km/h 95% 0.2 mm 25 W/m2
10:58 1.3 °C 0.7 °C 1001.0 hPa ESE 3.2 km/h 6.4 km/h 96% 0.2 mm 26 W/m2
11:03 1.3 °C 0.7 °C 1001.4 hPa East 6.4 km/h 6.4 km/h 96% 0.5 mm 25 W/m2
11:08 1.3 °C 0.7 °C 1001.0 hPa SSE 3.2 km/h 6.4 km/h 96% 0.5 mm 40 W/m2
11:13 1.4 °C 0.8 °C 1001.0 hPa ESE 1.4 km/h 9.7 km/h 96% 0.2 mm 53 W/m2
11:18 1.4 °C 0.8 °C 1001.0 hPa ENE 3.2 km/h 6.4 km/h 96% 0.2 mm 60 W/m2
11:23 1.3 °C 0.7 °C 1001.0 hPa East 3.2 km/h 6.4 km/h 96% 0.2 mm 58 W/m2
11:28 1.4 °C 0.8 °C 1001.0 hPa ESE 3.2 km/h 9.7 km/h 96% 0.2 mm 60 W/m2
11:33 1.4 °C 0.8 °C 1001.0 hPa ESE 1.4 km/h 4.8 km/h 96% 0.2 mm 63 W/m2
11:38 1.4 °C 0.8 °C 1001.0 hPa ESE 3.2 km/h 4.8 km/h 96% 0.2 mm 60 W/m2
11:43 1.4 °C 0.8 °C 1001.0 hPa ESE 1.4 km/h 4.8 km/h 96% 0.2 mm 49 W/m2
11:48 1.4 °C 0.8 °C 1001.0 hPa ESE 1.4 km/h 8 km/h 96% 0.2 mm 67 W/m2
11:53 1.4 °C 0.8 °C 1001.0 hPa East 6.4 km/h 6.4 km/h 96% 0.2 mm 70 W/m2
11:58 1.4 °C 0.8 °C 1000.7 hPa East 3.2 km/h 11.3 km/h 96% 0.2 mm 65 W/m2
12:03 1.4 °C 0.8 °C 1001.0 hPa East 4.7 km/h 6.4 km/h 96% 0.0 mm 49 W/m2
12:08 1.4 °C 0.8 °C 1000.7 hPa NE 3.2 km/h 9.7 km/h 96% 0.0 mm 56 W/m2
12:13 1.4 °C 0.8 °C 1000.7 hPa ENE 3.2 km/h 6.4 km/h 96% 0.0 mm 58 W/m2
12:18 1.4 °C 0.8 °C 1000.7 hPa ESE 4.7 km/h 9.7 km/h 96% 0.0 mm 54 W/m2
12:23 1.5 °C 0.9 °C 1000.7 hPa East 3.2 km/h 6.4 km/h 96% 0.0 mm 63 W/m2
12:28 1.6 °C 1 °C 1000.3 hPa ENE 3.2 km/h 6.4 km/h 96% 0.0 mm 62 W/m2
12:33 1.6 °C 1 °C 1000.3 hPa ENE 3.2 km/h 6.4 km/h 96% 0.0 mm 54 W/m2
12:38 1.6 °C 1 °C 1000.3 hPa East 1.4 km/h 6.4 km/h 96% 0.0 mm 58 W/m2
12:43 1.6 °C 1 °C 1000.3 hPa Calm   8 km/h 96% 0.0 mm 76 W/m2
12:48 1.6 °C 1 °C 1000.3 hPa ESE 1.4 km/h 6.4 km/h 96% 0.0 mm 72 W/m2
12:53 1.7 °C 1.1 °C 1000.3 hPa ESE 4.7 km/h 6.4 km/h 96% 0.0 mm 65 W/m2
12:58 1.7 °C 1.1 °C 1000.3 hPa ENE 6.4 km/h 12.9 km/h 96% 0.0 mm 79 W/m2
13:03 1.7 °C 1.1 °C 1000.3 hPa ESE 3.2 km/h 6.4 km/h 96% 0.0 mm 69 W/m2
13:08 1.7 °C 1.1 °C 1000.3 hPa East 4.7 km/h 12.9 km/h 96% 0.0 mm 77 W/m2
13:13 1.7 °C 1.1 °C 1000.0 hPa East 4.7 km/h 9.7 km/h 96% 0.0 mm 67 W/m2
13:18 1.7 °C 1.1 °C 1000.0 hPa ESE 3.2 km/h 4.8 km/h 96% 0.0 mm 65 W/m2
13:23 1.8 °C 1.2 °C 1000.0 hPa East 3.2 km/h 6.4 km/h 96% 0.0 mm 81 W/m2
13:28 1.8 °C 1.2 °C 1000.0 hPa East 1.4 km/h 4.8 km/h 96% 0.0 mm 83 W/m2
13:33 1.8 °C 1.2 °C 1000.0 hPa ENE 4.7 km/h 6.4 km/h 96% 0.0 mm 65 W/m2
13:38 1.9 °C 1.3 °C 1000.0 hPa ESE 3.2 km/h 6.4 km/h 96% 0.0 mm 81 W/m2
13:43 1.9 °C 1.3 °C 1000.0 hPa ENE 3.2 km/h 6.4 km/h 96% 0.0 mm 72 W/m2
13:48 1.9 °C 1.3 °C 1000.0 hPa East 3.2 km/h 6.4 km/h 96% 0.0 mm 53 W/m2
13:53 1.9 °C 1.3 °C 1000.0 hPa East 3.2 km/h 3.2 km/h 96% 0.0 mm 40 W/m2
13:58 1.9 °C 1.3 °C 999.7 hPa Calm   4.8 km/h 96% 0.0 mm 46 W/m2
14:03 1.9 °C 1.3 °C 999.7 hPa SE 1.4 km/h 4.8 km/h 96% 0.0 mm 56 W/m2
14:08 1.9 °C 1.3 °C 999.7 hPa ESE 4.7 km/h 6.4 km/h 96% 0.0 mm 53 W/m2
14:13 1.9 °C 1.3 °C 999.7 hPa ESE 1.4 km/h 4.8 km/h 96% 0.0 mm 37 W/m2
14:18 1.9 °C 1.3 °C 999.7 hPa ESE 3.2 km/h 4.8 km/h 96% 0.0 mm 42 W/m2
14:23 1.9 °C 1.3 °C 999.7 hPa ESE 4.7 km/h 4.8 km/h 96% 0.0 mm 46 W/m2
14:28 1.9 °C 1.3 °C 999.3 hPa East 6.4 km/h 8 km/h 96% 0.0 mm 56 W/m2
14:33 1.9 °C 1.3 °C 999.3 hPa ESE 4.7 km/h 6.4 km/h 96% 0.0 mm 42 W/m2
14:38 1.9 °C 1.3 °C 999.3 hPa ESE 3.2 km/h 4.8 km/h 96% 0.2 mm 47 W/m2
14:43 1.9 °C 1.3 °C 999.0 hPa East 3.2 km/h 6.4 km/h 96% 0.2 mm 53 W/m2
14:48 1.9 °C 1.3 °C 999.0 hPa East 1.4 km/h 4.8 km/h 96% 0.2 mm 54 W/m2
14:53 2 °C 1.4 °C 999.0 hPa East 9.7 km/h 9.7 km/h 96% 0.2 mm 54 W/m2
14:58 2 °C 1.4 °C 999.0 hPa ESE 6.4 km/h 12.9 km/h 96% 0.2 mm 46 W/m2
15:03 1.9 °C 1.3 °C 998.6 hPa ESE 3.2 km/h 9.7 km/h 96% 0.2 mm 40 W/m2
15:08 1.9 °C 1.3 °C 998.6 hPa East 1.4 km/h 12.9 km/h 96% 0.2 mm 40 W/m2
15:13 1.9 °C 1.3 °C 998.6 hPa East 3.2 km/h 6.4 km/h 96% 0.2 mm 23 W/m2
15:18 2 °C 1.4 °C 998.6 hPa East 4.7 km/h 6.4 km/h 96% 0.2 mm 18 W/m2
15:23 2 °C 1.4 °C 998.6 hPa East 1.4 km/h 4.8 km/h 96% 0.2 mm 18 W/m2
15:28 2 °C 1.4 °C 998.6 hPa SE 3.2 km/h 4.8 km/h 96% 0.2 mm 21 W/m2
15:33 2.1 °C 1.5 °C 998.6 hPa NE 4.7 km/h 11.3 km/h 96% 0.2 mm 21 W/m2
15:38 2.1 °C 1.5 °C 998.6 hPa East 4.7 km/h 4.8 km/h 96% 0.0 mm 28 W/m2
15:43 2.1 °C 1.5 °C 998.6 hPa ESE 4.7 km/h 11.3 km/h 96% 0.0 mm 25 W/m2
15:48 2.1 °C 1.5 °C 998.6 hPa East 3.2 km/h 6.4 km/h 96% 0.0 mm 28 W/m2
15:53 2.1 °C 1.5 °C 998.6 hPa East 3.2 km/h 11.3 km/h 96% 0.0 mm 26 W/m2
15:58 2.1 °C 1.5 °C 998.3 hPa ESE 3.2 km/h 9.7 km/h 96% 0.0 mm 19 W/m2
16:03 2 °C 1.4 °C 998.3 hPa East 4.7 km/h 4.8 km/h 96% 0.0 mm 16 W/m2
16:08 2 °C 1.4 °C 998.3 hPa East 3.2 km/h 8 km/h 96% 0.0 mm 18 W/m2
16:13 2 °C 1.4 °C 998.3 hPa East 11.1 km/h 14.5 km/h 96% 0.0 mm 19 W/m2
16:18 2 °C 1.4 °C 998.0 hPa East 4.7 km/h 6.4 km/h 96% 0.0 mm 19 W/m2
16:23 2 °C 1.4 °C 998.3 hPa ESE 3.2 km/h 11.3 km/h 96% 0.0 mm 16 W/m2
16:28 2 °C 1.4 °C 998.0 hPa ESE 3.2 km/h 8 km/h 96% 0.0 mm 18 W/m2
16:33 2 °C 1.4 °C 998.0 hPa ENE 6.4 km/h 8 km/h 96% 0.0 mm 16 W/m2
16:38 2 °C 1.4 °C 998.0 hPa East 3.2 km/h 9.7 km/h 96% 0.0 mm 16 W/m2
16:43 2 °C 1.4 °C 998.0 hPa ESE 3.2 km/h 4.8 km/h 96% 0.2 mm 19 W/m2
16:48 2.1 °C 1.5 °C 998.0 hPa ESE 3.2 km/h 4.8 km/h 96% 0.2 mm 16 W/m2
16:53 2 °C 1.4 °C 997.6 hPa ESE 3.2 km/h 4.8 km/h 96% 0.2 mm 12 W/m2
16:58 2 °C 1.4 °C 997.6 hPa East 1.4 km/h 4.8 km/h 96% 0.2 mm 11 W/m2
17:03 2.1 °C 1.5 °C 997.6 hPa SE 3.2 km/h 6.4 km/h 96% 0.2 mm 7 W/m2
17:08 2 °C 1.4 °C 997.6 hPa East 3.2 km/h 6.4 km/h 96% 0.2 mm 5 W/m2
17:13 2.1 °C 1.7 °C 997.6 hPa ESE 1.4 km/h 6.4 km/h 97% 0.2 mm 5 W/m2
17:18 2.1 °C 1.7 °C 997.6 hPa ESE 3.2 km/h 4.8 km/h 97% 0.2 mm 0 W/m2
17:23 2 °C 1.6 °C 997.3 hPa East 1.4 km/h 6.4 km/h 97% 0.2 mm 0 W/m2
17:28 2.1 °C 1.7 °C 997.6 hPa ENE 3.2 km/h 4.8 km/h 97% 0.2 mm 0 W/m2
17:33 2.1 °C 1.7 °C 997.3 hPa East 4.7 km/h 4.8 km/h 97% 0.5 mm 0 W/m2
17:38 2 °C 1.6 °C 997.3 hPa East 1.4 km/h 4.8 km/h 97% 0.5 mm 0 W/m2
17:43 2 °C 1.6 °C 997.3 hPa East 3.2 km/h 4.8 km/h 97% 0.2 mm 0 W/m2
17:48 2 °C 1.6 °C 997.3 hPa ENE 3.2 km/h 4.8 km/h 97% 0.2 mm 0 W/m2
17:53 2 °C 1.6 °C 997.3 hPa East 3.2 km/h 6.4 km/h 97% 0.2 mm 0 W/m2
17:58 2 °C 1.6 °C 997.3 hPa ESE 11.3 km/h 11.3 km/h 97% 0.2 mm 0 W/m2
18:03 1.9 °C 1.5 °C 997.0 hPa SE 3.2 km/h 8 km/h 97% 0.5 mm 0 W/m2
18:08 1.9 °C 1.5 °C 997.0 hPa East 11.3 km/h 11.3 km/h 97% 0.5 mm 0 W/m2
18:13 1.9 °C 1.5 °C 997.0 hPa ESE 3.2 km/h 4.8 km/h 97% 0.5 mm 0 W/m2
18:18 1.9 °C 1.5 °C 997.0 hPa East 4.7 km/h 6.4 km/h 97% 0.5 mm 0 W/m2
18:23 1.9 °C 1.5 °C 997.0 hPa ESE 3.2 km/h 8 km/h 97% 0.5 mm 0 W/m2
18:28 1.9 °C 1.5 °C 996.6 hPa ENE 4.7 km/h 4.8 km/h 97% 0.5 mm 0 W/m2
18:33 1.9 °C 1.5 °C 996.6 hPa ESE 1.4 km/h 3.2 km/h 97% 0.2 mm 0 W/m2
18:38 1.9 °C 1.5 °C 996.3 hPa Calm   3.2 km/h 97% 0.2 mm 0 W/m2
18:43 1.9 °C 1.5 °C 996.3 hPa ESE 3.2 km/h 4.8 km/h 97% 0.2 mm 0 W/m2
18:48 1.9 °C 1.5 °C 996.3 hPa East 4.7 km/h 4.8 km/h 97% 0.2 mm 0 W/m2
18:53 1.9 °C 1.5 °C 995.9 hPa ESE 4.7 km/h 4.8 km/h 97% 0.5 mm 0 W/m2
18:58 1.9 °C 1.5 °C 995.9 hPa East 1.4 km/h 6.4 km/h 97% 0.5 mm 0 W/m2
19:03 1.9 °C 1.5 °C 995.9 hPa ENE 1.4 km/h 3.2 km/h 97% 0.2 mm 0 W/m2
19:08 1.9 °C 1.5 °C 995.9 hPa ENE 1.4 km/h 6.4 km/h 97% 0.2 mm 0 W/m2
19:13 1.9 °C 1.5 °C 995.9 hPa ESE 6.4 km/h 8 km/h 97% 0.2 mm 0 W/m2
19:18 1.9 °C 1.5 °C 995.9 hPa ENE 1.4 km/h 6.4 km/h 97% 0.5 mm 0 W/m2
19:23 1.9 °C 1.5 °C 995.6 hPa East 3.2 km/h 8 km/h 97% 0.5 mm 0 W/m2
19:28 1.9 °C 1.5 °C 995.6 hPa ESE 1.4 km/h 8 km/h 97% 0.5 mm 0 W/m2
19:34 1.9 °C 1.5 °C 995.3 hPa ESE 1.4 km/h 4.8 km/h 97% 0.5 mm 0 W/m2
19:39 1.9 °C 1.5 °C 995.3 hPa East 4.7 km/h 8 km/h 97% 0.5 mm 0 W/m2
19:44 1.9 °C 1.5 °C 995.3 hPa East 1.4 km/h 4.8 km/h 97% 0.5 mm 0 W/m2
19:49 1.9 °C 1.5 °C 995.3 hPa ESE 1.4 km/h 3.2 km/h 97% 0.5 mm 0 W/m2
19:54 1.9 °C 1.5 °C 995.3 hPa East 4.7 km/h 6.4 km/h 97% 0.5 mm 0 W/m2
19:59 1.9 °C 1.5 °C 994.9 hPa ENE 3.2 km/h 9.7 km/h 97% 0.5 mm 0 W/m2
20:04 1.9 °C 1.5 °C 994.9 hPa East 4.7 km/h 4.8 km/h 97% 0.5 mm 0 W/m2
20:09 1.9 °C 1.5 °C 994.9 hPa ESE 3.2 km/h 9.7 km/h 97% 0.5 mm 0 W/m2
20:14 1.9 °C 1.5 °C 994.9 hPa ENE 4.7 km/h 4.8 km/h 97% 0.5 mm 0 W/m2
20:19 1.9 °C 1.5 °C 994.9 hPa ENE 1.4 km/h 6.4 km/h 97% 0.2 mm 0 W/m2
20:24 1.9 °C 1.5 °C 994.6 hPa East 1.4 km/h 4.8 km/h 97% 0.5 mm 0 W/m2
20:29 1.9 °C 1.5 °C 994.6 hPa East 3.2 km/h 6.4 km/h 97% 0.5 mm 0 W/m2
20:34 2 °C 1.6 °C 994.6 hPa East 4.7 km/h 9.7 km/h 97% 0.5 mm 0 W/m2
20:39 2 °C 1.6 °C 994.2 hPa East 4.7 km/h 4.8 km/h 97% 0.5 mm 0 W/m2
20:44 2 °C 1.6 °C 994.2 hPa ESE 3.2 km/h 4.8 km/h 97% 0.5 mm 0 W/m2
20:49 2 °C 1.6 °C 994.2 hPa ESE 3.2 km/h 6.4 km/h 97% 0.5 mm 0 W/m2
20:54 2 °C 1.6 °C 994.2 hPa ENE 1.4 km/h 3.2 km/h 97% 0.5 mm 0 W/m2
20:59 2.1 °C 1.7 °C 993.9 hPa East 1.4 km/h 3.2 km/h 97% 0.5 mm 0 W/m2
21:04 2 °C 1.6 °C 993.9 hPa ESE 1.4 km/h 3.2 km/h 97% 0.8 mm 0 W/m2
21:09 2.1 °C 1.7 °C 993.9 hPa ESE 1.4 km/h 3.2 km/h 97% 1.0 mm 0 W/m2
21:14 2.1 °C 1.7 °C 993.9 hPa ESE 1.4 km/h 3.2 km/h 97% 1.0 mm 0 W/m2
21:19 2.1 °C 1.7 °C 993.9 hPa ENE 1.4 km/h 3.2 km/h 97% 1.3 mm 0 W/m2
21:24 2.1 °C 1.7 °C 993.6 hPa East 3.2 km/h 4.8 km/h 97% 1.0 mm 0 W/m2
21:29 2.1 °C 1.7 °C 993.6 hPa ESE 1.4 km/h 4.8 km/h 97% 1.3 mm 0 W/m2
21:34 2.1 °C 1.7 °C 993.6 hPa ESE 3.2 km/h 9.7 km/h 97% 1.5 mm 0 W/m2
21:39 2.1 °C 1.7 °C 993.6 hPa East 3.2 km/h 4.8 km/h 97% 1.5 mm 0 W/m2
21:44 2.1 °C 1.7 °C 993.6 hPa East 1.4 km/h 9.7 km/h 97% 1.5 mm 0 W/m2
21:49 2.1 °C 1.7 °C 993.2 hPa ESE 3.2 km/h 6.4 km/h 97% 1.5 mm 0 W/m2
21:54 2.1 °C 1.7 °C 993.2 hPa East 3.2 km/h 3.2 km/h 97% 2.0 mm 0 W/m2
21:59 2.1 °C 1.7 °C 993.2 hPa East 1.4 km/h 6.4 km/h 97% 2.0 mm 0 W/m2
22:04 2.2 °C 1.8 °C 992.9 hPa East 1.4 km/h 6.4 km/h 97% 2.0 mm 0 W/m2
22:09 2.2 °C 1.8 °C 992.9 hPa East 1.4 km/h 4.8 km/h 97% 2.0 mm 0 W/m2
22:14 2.2 °C 1.8 °C 992.9 hPa East 3.2 km/h 3.2 km/h 97% 2.0 mm 0 W/m2
22:19 2.2 °C 1.8 °C 992.9 hPa Calm   3.2 km/h 97% 2.0 mm 0 W/m2
22:24 2.2 °C 1.8 °C 992.9 hPa East 1.4 km/h 4.8 km/h 97% 2.0 mm 0 W/m2
22:29 2.2 °C 1.8 °C 992.9 hPa ENE 1.4 km/h 3.2 km/h 97% 2.0 mm 0 W/m2
22:34 2.2 °C 1.8 °C 992.5 hPa ENE 1.4 km/h 4.8 km/h 97% 2.0 mm 0 W/m2
22:39 2.2 °C 1.8 °C 992.5 hPa ENE 1.4 km/h 3.2 km/h 97% 2.3 mm 0 W/m2
22:44 2.2 °C 1.8 °C 992.5 hPa ENE 1.4 km/h 4.8 km/h 97% 2.3 mm 0 W/m2
22:49 2.2 °C 1.8 °C 992.5 hPa ENE 1.4 km/h 3.2 km/h 97% 2.0 mm 0 W/m2
22:54 2.2 °C 1.8 °C 992.5 hPa Calm   4.8 km/h 97% 1.5 mm 0 W/m2
22:59 2.2 °C 1.8 °C 992.2 hPa Calm   1.6 km/h 97% 1.5 mm 0 W/m2
23:04 2.2 °C 1.8 °C 992.2 hPa ENE 1.4 km/h 1.6 km/h 97% 1.5 mm 0 W/m2
23:09 2.2 °C 1.8 °C 992.2 hPa ENE 1.4 km/h 3.2 km/h 97% 1.5 mm 0 W/m2
23:14 2.3 °C 1.9 °C 992.2 hPa ESE 3.2 km/h 4.8 km/h 97% 1.5 mm 0 W/m2
23:19 2.3 °C 1.9 °C 991.9 hPa ENE 3.2 km/h 4.8 km/h 97% 1.3 mm 0 W/m2
23:24 2.2 °C 1.8 °C 991.9 hPa Calm     97% 1.5 mm 0 W/m2
23:29 2.3 °C 1.9 °C 991.9 hPa NE 4.7 km/h 4.8 km/h 97% 1.3 mm 0 W/m2
23:34 2.2 °C 1.8 °C 991.9 hPa East 3.2 km/h 4.8 km/h 97% 1.3 mm 0 W/m2
23:39 2.2 °C 1.8 °C 991.9 hPa ESE 3.2 km/h 4.8 km/h 97% 1.0 mm 0 W/m2
23:44 2.2 °C 1.8 °C 991.5 hPa ENE 3.2 km/h 4.8 km/h 97% 1.0 mm 0 W/m2
23:49 2.2 °C 1.8 °C 991.5 hPa Calm   3.2 km/h 97% 1.0 mm 0 W/m2
23:54 2.2 °C 1.8 °C 991.5 hPa East 3.2 km/h 3.2 km/h 97% 1.0 mm 0 W/m2
23:59 2.2 °C 1.8 °C 991.5 hPa ESE 1.4 km/h 3.2 km/h 97% 1.0 mm 0 W/m2
Juneau County Weather
Compliments of Weather Underground - 4 mb